RUK5DM EGSS-EGPH
Flight info
| Callsign | RUK5DM |
|---|---|
| Flight time | N/A |
| Altitude | 32000 |
| Route | UTAVA Q75 BUZAD T420 TNT UN57 POL UN601 RIBEL DCT INPIP |
| Aircraft | B738/M-SDE3FGILRWY/SB1 |
Departure
| Time | N/A |
|---|---|
| Airport | London Stansted Airport (EGSS) |
Arrival
| Time | 2026-05-04 22:13 |
|---|---|
| Airport | Edinburgh Airport (EGPH) |
| Time | Latitude | Longitude | Altitude | Speed | Heading |
|---|---|---|---|---|---|
| 2026-05-04 21:49 | 54.56641 | -2.67416 | 29860 ft | 406 kts | 336° |
| 2026-05-04 21:49 | 54.59257 | -2.69270 | 29517 ft | 406 kts | 336° |
| 2026-05-04 21:49 | 54.61862 | -2.71119 | 29175 ft | 405 kts | 336° |
| 2026-05-04 21:50 | 54.64471 | -2.72973 | 28850 ft | 406 kts | 336° |
| 2026-05-04 21:50 | 54.67082 | -2.74831 | 28514 ft | 407 kts | 336° |
| 2026-05-04 21:50 | 54.69702 | -2.76699 | 28195 ft | 408 kts | 336° |
| 2026-05-04 21:50 | 54.72331 | -2.78576 | 27888 ft | 410 kts | 335° |
| 2026-05-04 21:51 | 54.74973 | -2.80464 | 27563 ft | 411 kts | 335° |
| 2026-05-04 21:51 | 54.77625 | -2.82362 | 27262 ft | 413 kts | 335° |
| 2026-05-04 21:51 | 54.80278 | -2.84265 | 26952 ft | 414 kts | 335° |
| 2026-05-04 21:51 | 54.82945 | -2.86178 | 26645 ft | 415 kts | 335° |
| 2026-05-04 21:52 | 54.85619 | -2.88100 | 26345 ft | 416 kts | 335° |
| 2026-05-04 21:52 | 54.88295 | -2.90026 | 26102 ft | 416 kts | 335° |
| 2026-05-04 21:52 | 54.90980 | -2.91967 | 26079 ft | 419 kts | 335° |
| 2026-05-04 21:52 | 54.93677 | -2.93922 | 25779 ft | 421 kts | 335° |
| 2026-05-04 21:53 | 54.96376 | -2.95882 | 25409 ft | 418 kts | 335° |
| 2026-05-04 21:53 | 54.99036 | -2.97814 | 25059 ft | 411 kts | 334° |
| 2026-05-04 21:53 | 55.01628 | -2.99699 | 24696 ft | 405 kts | 334° |
| 2026-05-04 21:53 | 55.04203 | -3.01575 | 24333 ft | 399 kts | 334° |
| 2026-05-04 21:54 | 55.06750 | -3.03435 | 23979 ft | 394 kts | 334° |
| 2026-05-04 21:54 | 55.09260 | -3.05271 | 23621 ft | 389 kts | 334° |
| 2026-05-04 21:54 | 55.11736 | -3.07084 | 23206 ft | 384 kts | 334° |
| 2026-05-04 21:54 | 55.14161 | -3.08860 | 22802 ft | 380 kts | 334° |
| 2026-05-04 21:55 | 55.16584 | -3.10637 | 22392 ft | 376 kts | 334° |
| 2026-05-04 21:55 | 55.18985 | -3.12398 | 21994 ft | 372 kts | 334° |
| 2026-05-04 21:55 | 55.21355 | -3.14137 | 21599 ft | 368 kts | 334° |
| 2026-05-04 21:55 | 55.23709 | -3.15867 | 21238 ft | 365 kts | 333° |
| 2026-05-04 21:56 | 55.26044 | -3.17585 | 20850 ft | 362 kts | 333° |
| 2026-05-04 21:56 | 55.28358 | -3.19285 | 20464 ft | 359 kts | 335° |
| 2026-05-04 21:56 | 55.30789 | -3.20298 | 20058 ft | 364 kts | 354° |
| 2026-05-04 21:56 | 55.33320 | -3.20093 | 19735 ft | 363 kts | 1° |
| 2026-05-04 21:57 | 55.35834 | -3.19681 | 19355 ft | 362 kts | 2° |
| 2026-05-04 21:57 | 55.38326 | -3.19234 | 18997 ft | 359 kts | 2° |
| 2026-05-04 21:57 | 55.40806 | -3.18794 | 18642 ft | 357 kts | 2° |
| 2026-05-04 21:57 | 55.43270 | -3.18373 | 18272 ft | 354 kts | 2° |
| 2026-05-04 21:58 | 55.45714 | -3.17970 | 17875 ft | 352 kts | 2° |
| 2026-05-04 21:58 | 55.48119 | -3.17583 | 17478 ft | 350 kts | 1° |
| 2026-05-04 21:58 | 55.50540 | -3.17198 | 17109 ft | 348 kts | 1° |
| 2026-05-04 21:58 | 55.52949 | -3.16818 | 16704 ft | 346 kts | 1° |
| 2026-05-04 21:59 | 55.55342 | -3.16441 | 16317 ft | 344 kts | 1° |
| 2026-05-04 21:59 | 55.57714 | -3.16069 | 15930 ft | 342 kts | 1° |
| 2026-05-04 21:59 | 55.60084 | -3.15696 | 15563 ft | 340 kts | 1° |
| 2026-05-04 21:59 | 55.62435 | -3.15326 | 15189 ft | 339 kts | 1° |
| 2026-05-04 22:00 | 55.64781 | -3.14955 | 14806 ft | 337 kts | 1° |
| 2026-05-04 22:00 | 55.67112 | -3.14585 | 14447 ft | 336 kts | 1° |
| 2026-05-04 22:00 | 55.69434 | -3.14127 | 14080 ft | 337 kts | 9° |
| 2026-05-04 22:00 | 55.71597 | -3.12510 | 13698 ft | 343 kts | 31° |
| 2026-05-04 22:01 | 55.73450 | -3.09848 | 13323 ft | 343 kts | 39° |
| 2026-05-04 22:01 | 55.75195 | -3.07025 | 12934 ft | 342 kts | 40° |
| 2026-05-04 22:01 | 55.76925 | -3.04142 | 12542 ft | 340 kts | 40° |
| 2026-05-04 22:01 | 55.78641 | -3.01261 | 12157 ft | 339 kts | 40° |
| 2026-05-04 22:02 | 55.80345 | -2.98388 | 11772 ft | 337 kts | 40° |
| 2026-05-04 22:02 | 55.82044 | -2.95518 | 11401 ft | 336 kts | 40° |
| 2026-05-04 22:02 | 55.83733 | -2.92665 | 11016 ft | 334 kts | 40° |
| 2026-05-04 22:02 | 55.85416 | -2.89817 | 10644 ft | 333 kts | 40° |
| 2026-05-04 22:03 | 55.87069 | -2.87022 | 10279 ft | 331 kts | 40° |
| 2026-05-04 22:03 | 55.88754 | -2.84170 | 9906 ft | 327 kts | 40° |
| 2026-05-04 22:03 | 55.90381 | -2.81410 | 9497 ft | 318 kts | 41° |
| 2026-05-04 22:03 | 55.91966 | -2.78728 | 9082 ft | 310 kts | 41° |
| 2026-05-04 22:04 | 55.93500 | -2.76143 | 8689 ft | 303 kts | 40° |
| 2026-05-04 22:04 | 55.95013 | -2.73596 | 8296 ft | 296 kts | 41° |
| 2026-05-04 22:04 | 55.96514 | -2.71138 | 7899 ft | 289 kts | 34° |
| 2026-05-04 22:04 | 55.98281 | -2.69649 | 7498 ft | 276 kts | 7° |
| 2026-05-04 22:05 | 56.00144 | -2.69775 | 7142 ft | 264 kts | 342° |
| 2026-05-04 22:05 | 56.01854 | -2.70867 | 6791 ft | 258 kts | 334° |
| 2026-05-04 22:05 | 56.03290 | -2.72730 | 6484 ft | 257 kts | 308° |
| 2026-05-04 22:05 | 56.04067 | -2.75570 | 6214 ft | 255 kts | 287° |
| 2026-05-04 22:06 | 56.04510 | -2.78622 | 5923 ft | 250 kts | 284° |
| 2026-05-04 22:06 | 56.04909 | -2.81616 | 5624 ft | 245 kts | 284° |
| 2026-05-04 22:06 | 56.05288 | -2.84566 | 5342 ft | 243 kts | 284° |
| 2026-05-04 22:06 | 56.05647 | -2.87470 | 5102 ft | 236 kts | 283° |
| 2026-05-04 22:07 | 56.05991 | -2.90260 | 4673 ft | 228 kts | 282° |
| 2026-05-04 22:07 | 56.06342 | -2.92999 | 4533 ft | 223 kts | 283° |
| 2026-05-04 22:07 | 56.06684 | -2.95654 | 4243 ft | 215 kts | 283° |
| 2026-05-04 22:07 | 56.07016 | -2.98218 | 4013 ft | 206 kts | 284° |
| 2026-05-04 22:08 | 56.07077 | -3.00665 | 3784 ft | 199 kts | 256° |
| 2026-05-04 22:08 | 56.06470 | -3.02816 | 3623 ft | 189 kts | 241° |
| 2026-05-04 22:08 | 56.05764 | -3.04789 | 3439 ft | 187 kts | 240° |
| 2026-05-04 22:08 | 56.05052 | -3.06735 | 3235 ft | 186 kts | 240° |
| 2026-05-04 22:09 | 56.04361 | -3.08625 | 3052 ft | 177 kts | 240° |
| 2026-05-04 22:09 | 56.03735 | -3.10499 | 2994 ft | 173 kts | 244° |
| 2026-05-04 22:09 | 56.03152 | -3.12362 | 2986 ft | 172 kts | 244° |
| 2026-05-04 22:09 | 56.02572 | -3.14233 | 2980 ft | 173 kts | 244° |
| 2026-05-04 22:10 | 56.01999 | -3.16124 | 2780 ft | 173 kts | 245° |
| 2026-05-04 22:10 | 56.01436 | -3.18006 | 2451 ft | 169 kts | 244° |
| 2026-05-04 22:10 | 56.00835 | -3.19802 | 2063 ft | 166 kts | 243° |
| 2026-05-04 22:10 | 56.00261 | -3.21509 | 1805 ft | 154 kts | 243° |
| 2026-05-04 22:11 | 55.99749 | -3.23063 | 1629 ft | 137 kts | 243° |
| 2026-05-04 22:11 | 55.99273 | -3.24473 | 1390 ft | 129 kts | 243° |
| 2026-05-04 22:11 | 55.98808 | -3.25819 | 1203 ft | 128 kts | 242° |
| 2026-05-04 22:11 | 55.98328 | -3.27242 | 1169 ft | 139 kts | 243° |
| 2026-05-04 22:12 | 55.97861 | -3.28752 | 1080 ft | 140 kts | 244° |
| 2026-05-04 22:12 | 55.97370 | -3.30243 | 902 ft | 140 kts | 241° |
| 2026-05-04 22:12 | 55.96870 | -3.31738 | 702 ft | 140 kts | 240° |
| 2026-05-04 22:12 | 55.96361 | -3.33206 | 499 ft | 137 kts | 242° |
| 2026-05-04 22:13 | 55.95886 | -3.34622 | 305 ft | 132 kts | 241° |
| 2026-05-04 22:13 | 55.95420 | -3.36010 | 121 ft | 130 kts | 240° |
| 2026-05-04 22:13 | 55.95000 | -3.37256 | 110 ft | 99 kts | 237° |
| 2026-05-04 22:13 | 55.94775 | -3.37915 | 111 ft | 22 kts | 239° |
| 2026-05-04 22:14 | 55.94706 | -3.38055 | 112 ft | 13 kts | 185° |
| 2026-05-04 22:14 | 55.94650 | -3.38012 | 113 ft | 7 kts | 148° |
| 2026-05-04 22:14 | 55.94609 | -3.37966 | 111 ft | 7 kts | 148° |
| 2026-05-04 22:14 | 55.94590 | -3.37895 | 114 ft | 7 kts | 82° |
| 2026-05-04 22:15 | 55.94612 | -3.37821 | 112 ft | 7 kts | 58° |
| 2026-05-04 22:15 | 55.94639 | -3.37745 | 115 ft | 8 kts | 58° |
| 2026-05-04 22:15 | 55.94669 | -3.37656 | 115 ft | 9 kts | 59° |
| 2026-05-04 22:15 | 55.94703 | -3.37555 | 114 ft | 10 kts | 59° |
| 2026-05-04 22:16 | 55.94741 | -3.37443 | 115 ft | 11 kts | 59° |
| 2026-05-04 22:16 | 55.94783 | -3.37317 | 115 ft | 12 kts | 59° |
| 2026-05-04 22:16 | 55.94826 | -3.37191 | 115 ft | 12 kts | 58° |
| 2026-05-04 22:16 | 55.94872 | -3.37057 | 114 ft | 13 kts | 58° |
| 2026-05-04 22:17 | 55.94919 | -3.36923 | 112 ft | 13 kts | 58° |
| 2026-05-04 22:17 | 55.94892 | -3.36802 | 114 ft | 12 kts | 150° |
| 2026-05-04 22:17 | 55.94810 | -3.36779 | 115 ft | 12 kts | 179° |
| 2026-05-04 22:17 | 55.94741 | -3.36740 | 115 ft | 10 kts | 168° |
| 2026-05-04 22:18 | 55.94670 | -3.36735 | 115 ft | 10 kts | 179° |
| 2026-05-04 22:18 | 55.94608 | -3.36734 | 115 ft | 6 kts | 179° |
| 2026-05-04 22:18 | 55.94574 | -3.36700 | 114 ft | 6 kts | 109° |
| 2026-05-04 22:18 | 55.94571 | -3.36646 | 115 ft | 2 kts | 90° |
| 2026-05-04 22:19 | 55.94572 | -3.36623 | 115 ft | 0 kts | 89° |